Whittier, AK (99693)

10:20 AM AKST on January 26, 2015 (GMT -0900)
APRSWXNET Whittier AK US | Change Station
CLOSE
Current Station
Personal Weather Station
Location: Girdwood, AK
Elevation: 15 ft
Nearby Weather Stations

Elev 15 ft 60.78 °N, 148.68 °W | Updated 31 minutes ago

Overcast
Overcast
17 °F
Feels Like 17 °F
N
1
Wind Variable Wind from West
Gusts 12.0 mph

Today
High -- | Low -- °F
--% Chance of Precip.
Yesterday
High -- | Low -- °F
Precip. -- in
9:26 AM 4:48 PM
Waxing Crescent, 46% visible
Pressure 30.03 in
Visibility 10.0 miles
Clouds Overcast 3100 ft
Windchill 17 °F
Dew Point 10 °F
Humidity 74%
Rainfall -999.00 in
Snow Depth Not available.
UV 0 out of 12
Pollen Not available.
Air Quality Not available.
Flu Activity Not available.
METAR PATO 261853Z AUTO 00000KT 10SM OVC031 M15/M16 A3002 RMK AO2 SNE1758 SLP167 P0000 T11501161 TSNO $

More Conditions Fewer Conditions

Pressure 30.03 in
Visibility 10.0 miles
Clouds Overcast 3100 ft
Windchill 17 °F
Dew Point 10 °F
Humidity 74%
Rainfall -999.00 in
Snow Depth Not available.
UV 0 out of 12
Pollen Not available.
Air Quality Not available.
Flu Activity Not available.
METAR PATO 261853Z AUTO 00000KT 10SM OVC031 M15/M16 A3002 RMK AO2 SNE1758 SLP167 P0000 T11501161 TSNO $

More Conditions Fewer Conditions

10-Day Weather Forecast

Almanac

Astronomy

Jan. 26, 2015 Rise Set
Actual Time
Civil Twilight
Nautical Twilight
Astronomical Twilight
Moon
Length of Visible Light
Length of Day
Tomorrow will be .
, % of the Moon is Illuminated

Today's Extremes

State Highs State Lows

Community

WunderPhotos

Upload Photos

1,790,336 photos uploaded!

WunderBlogs® & News

Nearby

Air Quality

  Air Quality AQ Index Pollutant
Not available.

Snow Depth

Station Depth Elevation

Earthquake Activity

City Distance Mag. Time & Date
Minimum magnitude displayed is 2.5.

Coastal Water Temperatures

Place Temperature

Nearby Weather Stations